Time;durP1;ratioP1;P1;durP2;ratioP2;P2;SDS_P1;SDS_P2;PMS_P1;PMS_P2;Temp;Humidity;BMP_temperature;BMP_pressure;BME280_temperature;BME280_humidity;BME280_pressure;Samples;Min_cycle;Max_cycle;Signal;HPM_P1;HPM_P2
2023/04/25 04:44:51;;;;;;;15.00;6.30;;;;;;;7.11;100.00;99637.31;109407;1274;23880;-49
2023/04/25 04:47:41;;;;;;;10.60;5.50;;;;;;;7.27;100.00;99636.48;108970;1273;24238;-49
2023/04/25 04:50:35;;;;;;;15.90;5.80;;;;;;;7.43;100.00;99637.41;108183;1276;25396;-48
2023/04/25 04:53:22;;;;;;;11.60;5.90;;;;;;;7.59;100.00;99635.70;108814;1273;24217;-48
2023/04/25 04:56:23;;;;;;;12.90;6.70;;;;;;;7.81;100.00;99640.76;109945;1270;22884;-57
2023/04/25 04:59:12;;;;;;;18.50;6.50;;;;;;;8.02;100.00;99639.55;110100;1273;22357;-48
2023/04/25 05:02:12;;;;;;;11.00;6.40;;;;;;;8.24;100.00;99637.10;109876;1272;22319;-48
2023/04/25 05:05:08;;;;;;;14.50;7.40;;;;;;;8.44;100.00;99633.30;109887;1273;22351;-57
2023/04/25 05:07:49;;;;;;;10.90;7.20;;;;;;;8.63;100.00;99626.98;109683;1272;22406;-48
2023/04/25 05:10:35;;;;;;;15.10;7.00;;;;;;;8.83;100.00;99620.84;110047;1270;23234;-48
2023/04/25 05:13:09;;;;;;;16.30;6.90;;;;;;;9.02;100.00;99620.25;109885;1274;192178;-48
2023/04/25 05:15:50;;;;;;;14.60;7.50;;;;;;;9.19;100.00;99618.59;109919;1273;22336;-48
2023/04/25 05:18:48;;;;;;;17.20;7.50;;;;;;;9.41;100.00;99611.34;109641;1272;22526;-59
2023/04/25 05:21:40;;;;;;;27.70;7.10;;;;;;;9.60;100.00;99613.30;109291;1270;22536;-49
2023/04/25 05:24:43;;;;;;;12.10;5.90;;;;;;;9.79;100.00;99617.69;109420;1275;23117;-48
2023/04/25 05:27:23;;;;;;;15.40;6.60;;;;;;;9.96;100.00;99615.45;109612;1270;22450;-49
2023/04/25 05:30:14;;;;;;;11.70;7.70;;;;;;;10.14;100.00;99609.03;109516;1270;22390;-49
2023/04/25 05:36:33;;;;;;;9.90;7.10;;;;;;;10.48;100.00;99606.30;109446;1270;22663;-59
2023/04/25 05:39:50;;;;;;;11.40;7.50;;;;;;;10.62;100.00;99608.06;109721;1270;22515;-59
2023/04/25 05:42:51;;;;;;;19.90;10.00;;;;;;;10.79;100.00;99603.69;109050;1274;25394;-57
2023/04/25 05:45:53;;;;;;;13.30;6.60;;;;;;;10.96;99.50;99603.48;109551;1275;22649;-50
2023/04/25 05:48:44;;;;;;;7.60;6.40;;;;;;;11.13;98.49;99601.86;109832;1270;22404;-48
2023/04/25 05:51:31;;;;;;;16.50;8.50;;;;;;;11.30;97.23;99600.23;109791;1270;22343;-48
2023/04/25 05:54:10;;;;;;;12.00;6.40;;;;;;;11.44;95.82;99600.20;108847;1273;22967;-48
2023/04/25 05:56:41;;;;;;;11.60;5.80;;;;;;;11.58;94.59;99598.59;109555;1270;22796;-51
2023/04/25 05:59:14;;;;;;;10.30;6.80;;;;;;;11.73;93.39;99591.89;109136;1271;22382;-48
2023/04/25 06:01:41;;;;;;;20.40;7.50;;;;;;;11.88;92.40;99590.98;109881;1267;23014;-49
2023/04/25 06:04:10;;;;;;;13.20;6.30;;;;;;;12.04;91.70;99588.27;108721;1272;22504;-47
2023/04/25 06:06:40;;;;;;;11.50;5.90;;;;;;;12.21;90.63;99587.30;108566;1257;23263;-58
2023/04/25 06:09:10;;;;;;;11.30;5.80;;;;;;;12.35;88.90;99577.59;109107;1270;22611;-49
2023/04/25 06:11:41;;;;;;;10.40;5.10;;;;;;;12.44;85.73;99577.43;109124;1275;22440;-58
2023/04/25 06:14:09;;;;;;;7.70;5.00;;;;;;;12.52;84.75;99577.45;109950;1272;23336;-48
2023/04/25 06:16:40;;;;;;;9.50;5.60;;;;;;;12.63;83.83;99574.60;108776;1276;22353;-57
2023/04/25 06:19:14;;;;;;;9.10;5.50;;;;;;;12.73;83.23;99575.27;109094;1270;22864;-48
2023/04/25 06:21:43;;;;;;;7.70;5.60;;;;;;;12.87;83.00;99571.84;109625;1270;23028;-50
2023/04/25 06:24:10;;;;;;;13.30;5.60;;;;;;;13.03;82.35;99566.79;109244;1269;22459;-47
2023/04/25 06:26:39;;;;;;;10.50;4.40;;;;;;;13.19;81.87;99561.02;109478;1270;22394;-47
2023/04/25 06:29:07;;;;;;;10.40;6.60;;;;;;;13.36;81.48;99562.41;108858;1270;23088;-59
2023/04/25 06:31:34;;;;;;;9.60;4.60;;;;;;;13.52;80.68;99561.86;109429;1273;22395;-48
2023/04/25 06:34:02;;;;;;;5.30;3.70;;;;;;;13.66;79.09;99561.52;109966;1270;22417;-58
2023/04/25 06:36:30;;;;;;;9.00;4.60;;;;;;;13.80;77.59;99560.83;109886;1270;23207;-58
2023/04/25 06:39:02;;;;;;;9.50;3.80;;;;;;;13.95;76.30;99562.91;109960;1269;22429;-58
2023/04/25 06:41:30;;;;;;;7.80;4.20;;;;;;;14.07;74.78;99562.80;110074;1270;22381;-59
2023/04/25 06:43:58;;;;;;;13.00;4.00;;;;;;;14.20;73.40;99557.70;110061;1270;23006;-59
2023/04/25 06:46:32;;;;;;;17.20;4.30;;;;;;;14.34;72.42;99557.48;109697;1271;25606;-50
2023/04/25 06:48:59;;;;;;;5.80;3.80;;;;;;;14.49;72.02;99556.77;109611;1273;22707;-48
2023/04/25 06:51:29;;;;;;;13.40;4.50;;;;;;;14.62;71.21;99555.90;109540;1272;22513;-48
2023/04/25 06:53:56;;;;;;;12.10;4.40;;;;;;;14.75;70.03;99554.13;109364;1275;22407;-61
2023/04/25 06:56:30;;;;;;;8.20;3.80;;;;;;;14.87;68.90;99556.73;109998;1269;22400;-59
2023/04/25 06:59:07;;;;;;;6.00;3.40;;;;;;;15.00;68.03;99552.34;109682;1271;22493;-50
2023/04/25 07:01:37;;;;;;;6.40;3.40;;;;;;;15.12;66.73;99551.08;109336;1270;23629;-49
2023/04/25 07:04:08;;;;;;;6.40;4.00;;;;;;;15.25;65.06;99553.87;108832;1270;22518;-59
2023/04/25 07:06:47;;;;;;;6.70;3.40;;;;;;;15.36;63.93;99555.80;109223;1270;22351;-48
2023/04/25 07:09:33;;;;;;;6.10;3.80;;;;;;;15.46;63.79;99556.53;108354;1268;22531;-49
2023/04/25 07:12:14;;;;;;;7.60;3.30;;;;;;;15.56;63.14;99559.54;109268;1260;22501;-50
2023/04/25 07:14:45;;;;;;;5.30;3.60;;;;;;;15.65;61.62;99554.20;108358;1276;23220;-47
2023/04/25 07:17:19;;;;;;;9.50;4.20;;;;;;;15.75;60.96;99549.14;107867;1275;22530;-49
2023/04/25 07:19:47;;;;;;;11.00;3.20;;;;;;;15.80;59.59;99557.58;108652;1275;23337;-50
2023/04/25 07:22:15;;;;;;;4.40;3.00;;;;;;;15.84;58.05;99554.65;109698;1276;22743;-50
2023/04/25 07:24:44;;;;;;;4.10;3.20;;;;;;;15.89;57.96;99551.48;109583;1275;23040;-59
2023/04/25 07:27:12;;;;;;;6.00;3.10;;;;;;;15.99;57.49;99545.70;109572;1276;22284;-57
2023/04/25 07:29:55;;;;;;;3.30;2.90;;;;;;;16.09;55.87;99543.94;109191;1273;22673;-58
2023/04/25 07:32:22;;;;;;;5.70;3.60;;;;;;;16.15;56.09;99543.19;108832;1276;22522;-50
2023/04/25 07:34:50;;;;;;;5.80;3.50;;;;;;;16.23;56.21;99539.56;109444;1276;22540;-59
2023/04/25 07:37:20;;;;;;;4.30;3.10;;;;;;;16.34;55.85;99535.66;109389;1276;22749;-59
2023/04/25 07:40:05;;;;;;;6.10;3.20;;;;;;;16.46;55.90;99531.55;109366;1276;23034;-47
2023/04/25 07:42:33;;;;;;;9.00;2.60;;;;;;;16.53;55.72;99524.77;108789;1270;22520;-49
2023/04/25 07:45:01;;;;;;;8.70;3.00;;;;;;;16.62;55.27;99526.38;109219;1270;23285;-52
2023/04/25 07:47:29;;;;;;;5.60;3.20;;;;;;;16.73;55.07;99521.77;108593;1273;22709;-58
2023/04/25 07:49:57;;;;;;;10.90;3.70;;;;;;;16.86;53.76;99518.83;108900;1270;22527;-61
2023/04/25 07:52:25;;;;;;;8.90;3.80;;;;;;;16.93;52.93;99521.17;108966;1271;22517;-57
2023/04/25 07:55:00;;;;;;;4.10;2.90;;;;;;;17.01;52.55;99523.52;109803;1271;22440;-51
2023/04/25 07:57:56;;;;;;;5.30;3.20;;;;;;;17.08;51.75;99523.10;109212;1273;22347;-48
2023/04/25 08:00:28;;;;;;;5.60;2.60;;;;;;;17.12;49.45;99529.84;109550;1274;23023;-49
2023/04/25 08:03:34;;;;;;;5.70;2.60;;;;;;;17.14;49.07;99529.72;109224;1267;24196;-59
2023/04/25 08:06:08;;;;;;;4.20;2.50;;;;;;;17.18;47.24;99530.80;108826;1271;22994;-59
2023/04/25 08:08:47;;;;;;;5.40;2.70;;;;;;;17.15;46.97;99527.41;108745;1269;22504;-53
2023/04/25 08:11:21;;;;;;;5.70;2.90;;;;;;;17.15;47.52;99526.00;108856;1264;22527;-58
2023/04/25 08:13:49;;;;;;;14.50;3.00;;;;;;;17.20;47.63;99523.33;109203;1272;22933;-49
2023/04/25 08:16:17;;;;;;;6.60;2.60;;;;;;;17.34;47.67;99522.80;108398;1254;22611;-49
2023/04/25 08:18:46;;;;;;;4.50;2.90;;;;;;;17.51;47.80;99520.86;108841;1272;25339;-59
2023/04/25 08:21:15;;;;;;;7.30;2.80;;;;;;;17.64;46.99;99519.42;108587;1273;22517;-51
2023/04/25 08:23:43;;;;;;;8.00;3.00;;;;;;;17.76;45.97;99512.44;108662;1275;23674;-59
2023/04/25 08:26:24;;;;;;;6.80;2.40;;;;;;;17.79;46.50;99511.42;108054;1273;22224;-58
2023/04/25 08:28:59;;;;;;;4.00;2.40;;;;;;;17.81;45.88;99513.66;108491;1269;23214;-58
2023/04/25 08:31:37;;;;;;;6.60;3.00;;;;;;;17.86;46.18;99510.27;109252;1270;22529;-50
2023/04/25 08:34:11;;;;;;;4.80;3.10;;;;;;;17.98;45.58;99503.95;109022;1275;23713;-59
2023/04/25 08:36:48;;;;;;;8.30;3.60;;;;;;;18.13;45.26;99499.77;108727;1270;23049;-59
2023/04/25 08:39:21;;;;;;;6.70;3.60;;;;;;;18.23;44.34;99497.73;108105;1270;22334;-60
2023/04/25 08:42:35;;;;;;;10.80;4.20;;;;;;;18.27;43.88;99492.98;109214;1270;22555;-51
2023/04/25 08:45:18;;;;;;;8.30;4.20;;;;;;;18.27;43.00;99489.27;109445;1272;22882;-59
2023/04/25 08:47:45;;;;;;;11.80;6.90;;;;;;;18.24;43.36;99486.20;109777;1275;23037;-58
2023/04/25 08:50:13;;;;;;;8.70;4.70;;;;;;;18.29;44.23;99481.04;109805;1262;22376;-47
2023/04/25 08:52:44;;;;;;;5.50;4.30;;;;;;;18.42;44.26;99482.42;109303;1271;22335;-49
2023/04/25 08:55:13;;;;;;;7.10;4.20;;;;;;;18.54;43.91;99484.85;109159;1276;22938;-49
2023/04/25 08:57:42;;;;;;;12.30;4.70;;;;;;;18.63;43.41;99484.80;108517;1270;22983;-48
2023/04/25 09:00:21;;;;;;;12.80;5.00;;;;;;;18.62;43.62;99483.65;109266;1270;22367;-56
2023/04/25 09:02:58;;;;;;;6.30;4.10;;;;;;;18.54;43.56;99480.98;108733;1276;22424;-50
2023/04/25 09:05:29;;;;;;;20.20;4.90;;;;;;;18.49;42.94;99475.91;108824;1270;22495;-49
2023/04/25 09:07:58;;;;;;;9.70;4.50;;;;;;;18.49;43.44;99472.20;108367;1274;22282;-58
2023/04/25 09:10:25;;;;;;;9.50;4.40;;;;;;;18.61;43.36;99470.97;109893;1274;22173;-49
2023/04/25 09:13:08;;;;;;;10.10;4.30;;;;;;;18.75;43.24;99470.85;108259;1270;22546;-59
2023/04/25 09:15:57;;;;;;;15.50;4.60;;;;;;;18.85;43.31;99469.16;108972;1273;22982;-47
2023/04/25 09:19:04;;;;;;;8.40;4.50;;;;;;;18.97;43.08;99466.48;108725;1272;22235;-48
2023/04/25 09:21:32;;;;;;;9.70;4.70;;;;;;;19.07;43.13;99464.90;109194;1276;22419;-49
2023/04/25 09:23:59;;;;;;;10.30;4.60;;;;;;;19.25;42.17;99463.54;109261;1276;22530;-48
2023/04/25 09:26:26;;;;;;;10.00;4.80;;;;;;;19.40;40.25;99464.05;109938;1273;22155;-49
2023/04/25 09:29:09;;;;;;;8.40;4.70;;;;;;;19.33;39.79;99464.21;109940;1275;22428;-51
2023/04/25 09:31:50;;;;;;;7.90;3.70;;;;;;;19.21;40.15;99455.25;109763;1272;22773;-59
2023/04/25 09:34:41;;;;;;;8.80;4.10;;;;;;;19.29;40.41;99454.50;109292;1270;22498;-58
2023/04/25 09:37:29;;;;;;;11.00;4.60;;;;;;;19.52;39.82;99449.31;108737;1275;22535;-59
2023/04/25 09:40:17;;;;;;;5.10;3.50;;;;;;;19.71;39.51;99449.43;108675;1266;22403;-48
2023/04/25 09:42:51;;;;;;;10.10;4.10;;;;;;;19.74;39.08;99446.99;109110;1275;23546;-55
2023/04/25 09:45:25;;;;;;;4.90;3.60;;;;;;;19.62;38.45;99446.70;109198;1270;23245;-56
2023/04/25 09:47:57;;;;;;;7.70;4.10;;;;;;;19.37;38.31;99443.34;109081;1277;22414;-48
2023/04/25 09:50:26;;;;;;;5.80;3.10;;;;;;;19.13;38.53;99447.50;109612;1271;22524;-48
2023/04/25 09:56:20;;;;;;;7.40;3.50;;;;;;;18.64;38.46;99442.21;109339;1274;24175;-58
2023/04/25 09:58:49;;;;;;;9.00;3.20;;;;;;;18.65;38.88;99437.03;108916;1263;22981;-49
2023/04/25 10:01:17;;;;;;;5.50;3.00;;;;;;;18.91;39.31;99433.37;109733;1273;22470;-49
2023/04/25 10:04:17;;;;;;;4.10;2.70;;;;;;;19.22;37.15;99429.94;109430;1274;22856;-58
2023/04/25 10:07:22;;;;;;;5.00;2.70;;;;;;;19.41;37.28;99430.20;109147;1277;22510;-58
2023/04/25 10:10:05;;;;;;;7.30;2.10;;;;;;;19.49;36.66;99426.84;109273;1270;22399;-59
2023/04/25 10:12:35;;;;;;;6.40;2.30;;;;;;;19.41;37.60;99425.78;109613;1277;23052;-62
2023/04/25 10:15:14;;;;;;;2.30;2.10;;;;;;;19.37;37.32;99422.48;109331;1271;22402;-59
2023/04/25 10:17:50;;;;;;;2.60;2.10;;;;;;;19.44;37.14;99418.75;109651;1277;24865;-49
2023/04/25 10:20:18;;;;;;;10.70;3.00;;;;;;;19.63;37.37;99414.10;109214;1276;23682;-60
2023/04/25 10:22:45;;;;;;;8.30;2.20;;;;;;;19.94;37.95;99415.50;109892;1273;22393;-58
2023/04/25 10:25:12;;;;;;;10.30;2.20;;;;;;;20.15;35.99;99415.99;109775;1277;22495;-59
2023/04/25 10:27:39;;;;;;;4.80;2.20;;;;;;;20.10;35.61;99417.70;109906;1276;22295;-57
2023/04/25 10:30:12;;;;;;;5.50;2.50;;;;;;;19.86;36.71;99417.18;109977;1276;22440;-57
2023/04/25 10:32:39;;;;;;;17.50;4.00;;;;;;;19.62;37.00;99419.81;109920;1276;22281;-58
2023/04/25 10:35:15;;;;;;;4.30;3.00;;;;;;;19.43;37.17;99418.98;109145;1276;22366;-48
2023/04/25 10:38:00;;;;;;;7.00;3.00;;;;;;;19.29;37.20;99417.17;109274;1277;24199;-49
2023/04/25 10:40:27;;;;;;;9.30;3.40;;;;;;;19.69;37.20;99414.52;109941;1277;22365;-48
2023/04/25 10:42:55;;;;;;;7.80;3.80;;;;;;;20.37;36.34;99408.30;108652;1277;22502;-58
2023/04/25 10:45:27;;;;;;;6.10;3.20;;;;;;;20.87;34.96;99409.09;108930;1277;22533;-62
2023/04/25 10:48:00;;;;;;;6.10;3.00;;;;;;;21.32;33.70;99411.66;108278;1277;22850;-59
2023/04/25 10:50:37;;;;;;;7.70;4.00;;;;;;;21.66;33.09;99407.02;109778;1270;22426;-47
2023/04/25 10:53:15;;;;;;;7.40;2.70;;;;;;;21.75;32.71;99403.63;108638;1276;23417;-57
2023/04/25 10:55:51;;;;;;;3.70;2.80;;;;;;;21.62;32.47;99399.95;109279;1272;22386;-49
2023/04/25 10:58:22;;;;;;;5.50;2.40;;;;;;;21.41;32.93;99397.46;109850;1277;22736;-57
2023/04/25 11:00:50;;;;;;;4.80;2.50;;;;;;;21.49;33.26;99396.85;109980;1277;22997;-57
2023/04/25 11:03:21;;;;;;;5.00;2.60;;;;;;;21.92;32.65;99391.44;110019;1276;22287;-58
2023/04/25 11:05:49;;;;;;;8.30;2.50;;;;;;;22.60;32.36;99390.23;109913;1277;22295;-59
2023/04/25 11:08:34;;;;;;;2.90;2.30;;;;;;;23.38;31.86;99384.03;109714;1276;22225;-58
2023/04/25 11:11:01;;;;;;;5.10;2.30;;;;;;;24.12;29.61;99384.73;110099;1276;23031;-58
2023/04/25 11:13:31;;;;;;;5.80;2.40;;;;;;;24.16;28.28;99379.98;110116;1271;22285;-58
2023/04/25 11:15:58;;;;;;;7.00;3.10;;;;;;;23.87;28.76;99379.02;109991;1276;22547;-58
2023/04/25 11:18:41;;;;;;;5.60;2.50;;;;;;;23.66;28.94;99374.16;109226;1270;22314;-57
2023/04/25 11:21:09;;;;;;;3.20;2.20;;;;;;;23.70;29.54;99374.52;109950;1276;22860;-59
2023/04/25 11:23:36;;;;;;;8.30;2.90;;;;;;;23.83;29.42;99365.03;108909;1276;23132;-49
2023/04/25 11:26:04;;;;;;;7.50;3.00;;;;;;;23.90;29.67;99355.45;109732;1277;22528;-50
2023/04/25 11:28:31;;;;;;;5.20;2.60;;;;;;;24.08;29.22;99356.70;109927;1277;22501;-50
2023/04/25 11:30:58;;;;;;;4.00;2.20;;;;;;;24.23;28.61;99351.67;109985;1276;22162;-50
2023/04/25 11:33:25;;;;;;;5.60;2.60;;;;;;;24.39;29.75;99352.52;109982;1277;22200;-49
2023/04/25 11:35:56;;;;;;;7.00;3.20;;;;;;;24.54;29.04;99347.52;110034;1277;22479;-47
2023/04/25 11:38:24;;;;;;;8.50;2.30;;;;;;;24.73;29.50;99349.34;110129;1276;22957;-48
2023/04/25 11:40:53;;;;;;;5.20;2.60;;;;;;;24.87;29.26;99348.34;110021;1277;23022;-49
2023/04/25 11:43:21;;;;;;;3.50;2.00;;;;;;;24.87;27.12;99351.00;110106;1278;22293;-48
2023/04/25 11:45:49;;;;;;;4.90;2.10;;;;;;;24.55;26.96;99350.15;109353;1277;22380;-58
2023/04/25 11:48:16;;;;;;;2.50;1.90;;;;;;;24.05;26.64;99353.13;110140;1277;22212;-57
2023/04/25 11:50:45;;;;;;;8.40;2.10;;;;;;;23.33;27.32;99355.95;110148;1277;22312;-58
2023/04/25 11:53:12;;;;;;;10.60;1.90;;;;;;;22.57;29.59;99358.56;109121;1277;23193;-48
2023/04/25 11:55:39;;;;;;;5.30;1.90;;;;;;;21.94;30.45;99357.21;109916;1277;22383;-57
2023/04/25 11:58:08;;;;;;;4.30;1.70;;;;;;;21.46;30.87;99352.69;107387;1276;22315;-57
2023/04/25 12:00:35;;;;;;;6.80;2.40;;;;;;;21.10;31.31;99353.51;109624;1276;22532;-59
2023/04/25 12:03:02;;;;;;;5.00;2.30;;;;;;;20.84;31.89;99353.61;107567;1276;25214;-59
2023/04/25 12:05:32;;;;;;;5.20;2.40;;;;;;;20.58;31.95;99350.27;108307;1277;22539;-50
2023/04/25 12:08:13;;;;;;;2.80;2.10;;;;;;;20.36;32.68;99347.80;107479;1277;22207;-49
2023/04/25 12:10:40;;;;;;;4.50;2.00;;;;;;;20.22;32.73;99342.16;109102;1277;25450;-50
2023/04/25 12:13:24;;;;;;;3.20;1.80;;;;;;;20.13;33.23;99340.73;108076;1277;23028;-48
2023/04/25 12:15:53;;;;;;;2.30;1.70;;;;;;;20.15;34.16;99337.03;107677;1277;22516;-56
2023/04/25 12:18:22;;;;;;;3.30;1.70;;;;;;;20.39;33.26;99329.34;107569;1278;22640;-59
2023/04/25 12:20:49;;;;;;;6.60;2.20;;;;;;;20.65;33.51;99324.56;109619;1278;22382;-51
